createdAt,value
2022-11-13T00:00:05.399Z,3.80
2022-11-13T00:02:38.666Z,4.00
2022-11-13T00:05:10.678Z,3.87
2022-11-13T00:07:43.778Z,4.00
2022-11-13T00:10:16.119Z,4.03
2022-11-13T00:12:47.240Z,3.50
2022-11-13T00:15:18.287Z,3.63
2022-11-13T00:17:49.332Z,3.30
2022-11-13T00:20:21.103Z,3.60
2022-11-13T00:22:54.808Z,4.30
2022-11-13T00:25:26.619Z,4.00
2022-11-13T00:27:58.081Z,3.67
2022-11-13T00:30:29.588Z,3.80
2022-11-13T00:33:01.435Z,3.70
2022-11-13T00:35:32.842Z,4.23
2022-11-13T00:38:06.505Z,4.40
2022-11-13T00:40:38.080Z,5.80
2022-11-13T00:43:09.789Z,5.90
2022-11-13T00:45:41.456Z,5.50
2022-11-13T00:48:13.593Z,4.97
2022-11-13T00:50:45.261Z,5.07
2022-11-13T00:53:19.112Z,5.30
2022-11-13T00:55:50.660Z,5.37
2022-11-13T00:58:22.034Z,6.00
2022-11-13T01:00:53.825Z,6.50
2022-11-13T01:03:25.397Z,7.30
2022-11-13T01:05:57.784Z,5.70
2022-11-13T01:08:31.089Z,5.23
2022-11-13T01:11:03.373Z,4.20
2022-11-13T01:13:34.466Z,4.27
2022-11-13T01:16:09.639Z,4.20
2022-11-13T01:18:42.228Z,4.20
2022-11-13T01:21:15.566Z,4.40
2022-11-13T01:23:48.967Z,4.33
2022-11-13T01:26:22.812Z,5.60
2022-11-13T01:28:54.316Z,6.83
2022-11-13T01:31:27.825Z,6.37
2022-11-13T01:33:59.030Z,6.73
2022-11-13T01:36:34.745Z,6.87
2022-11-13T01:39:09.041Z,6.70
2022-11-13T01:41:40.079Z,6.23
2022-11-13T01:44:15.692Z,6.70
2022-11-13T01:46:50.684Z,7.33
2022-11-13T01:49:35.462Z,6.77
2022-11-13T01:52:11.393Z,6.00
2022-11-13T01:54:48.215Z,6.70
2022-11-13T01:57:21.209Z,6.83
2022-11-13T01:59:56.038Z,5.93
2022-11-13T02:02:27.814Z,5.50
2022-11-13T02:04:59.602Z,5.50
2022-11-13T02:07:30.973Z,5.97
2022-11-13T02:10:04.788Z,12.67
2022-11-13T02:12:39.591Z,27.80
2022-11-13T02:15:13.039Z,6.27
2022-11-13T02:17:51.451Z,5.87
2022-11-13T02:20:30.334Z,5.80
2022-11-13T02:23:06.678Z,5.73
2022-11-13T02:25:43.416Z,5.67
2022-11-13T02:28:14.808Z,5.97
2022-11-13T02:30:46.808Z,5.53
2022-11-13T02:33:27.914Z,5.47
2022-11-13T02:35:59.095Z,5.03
2022-11-13T02:38:31.046Z,5.53
2022-11-13T02:41:05.010Z,5.50
2022-11-13T02:43:36.351Z,5.23
2022-11-13T02:46:07.838Z,5.30
2022-11-13T02:48:39.651Z,5.50
2022-11-13T02:51:10.769Z,5.00
2022-11-13T02:53:42.998Z,5.00
2022-11-13T02:56:16.632Z,5.10
2022-11-13T02:58:47.770Z,5.33
2022-11-13T03:01:20.808Z,5.13
2022-11-13T03:03:59.270Z,5.13
2022-11-13T03:06:30.425Z,5.17
2022-11-13T03:09:03.206Z,5.03
2022-11-13T03:11:36.156Z,5.70
2022-11-13T03:14:07.751Z,5.13
2022-11-13T03:16:40.656Z,6.30
2022-11-13T03:19:11.766Z,6.30
2022-11-13T03:21:42.943Z,6.77
2022-11-13T03:24:14.905Z,6.67
2022-11-13T03:26:48.108Z,6.80
2022-11-13T03:29:19.934Z,6.50
2022-11-13T03:31:51.872Z,6.37
2022-11-13T03:34:23.125Z,6.40
2022-11-13T03:36:55.227Z,6.13
2022-11-13T03:39:29.006Z,7.17
2022-11-13T03:42:02.425Z,7.50
2022-11-13T03:44:33.634Z,8.73
2022-11-13T03:47:04.923Z,9.27
2022-11-13T03:49:35.830Z,8.50
2022-11-13T03:52:08.872Z,9.70
2022-11-13T03:54:40.128Z,8.43
2022-11-13T03:57:14.151Z,9.20
2022-11-13T03:59:45.487Z,8.70
2022-11-13T04:02:17.794Z,8.63
2022-11-13T04:04:49.361Z,9.77
2022-11-13T04:07:23.422Z,10.20
2022-11-13T04:09:55.182Z,10.83
2022-11-13T04:12:28.349Z,10.47
2022-11-13T04:14:59.400Z,11.93
2022-11-13T04:17:31.385Z,14.30
2022-11-13T04:20:04.685Z,16.50
2022-11-13T04:22:35.969Z,16.43
2022-11-13T04:25:08.334Z,15.40
2022-11-13T04:27:42.834Z,13.70
2022-11-13T04:30:14.802Z,11.43
2022-11-13T04:32:45.998Z,10.57
2022-11-13T04:35:17.144Z,11.67
2022-11-13T04:37:48.286Z,13.40
2022-11-13T04:40:20.840Z,13.30
2022-11-13T04:42:52.605Z,10.83
2022-11-13T04:45:25.127Z,10.27
2022-11-13T04:47:56.346Z,10.67
2022-11-13T04:50:28.709Z,10.67
2022-11-13T04:52:59.530Z,13.47
2022-11-13T04:55:31.052Z,10.77
2022-11-13T04:58:04.661Z,9.63
2022-11-13T05:00:36.245Z,10.50
2022-11-13T05:03:11.818Z,9.00
2022-11-13T05:05:43.633Z,9.20
2022-11-13T05:08:15.226Z,9.33
2022-11-13T05:10:47.109Z,9.57
2022-11-13T05:13:20.338Z,10.17
2022-11-13T05:15:51.914Z,10.10
2022-11-13T05:18:24.233Z,10.17
2022-11-13T05:20:56.170Z,11.07
2022-11-13T05:23:27.249Z,10.67
2022-11-13T05:26:05.985Z,10.70
2022-11-13T05:28:43.463Z,9.67
2022-11-13T05:31:17.539Z,10.13
2022-11-13T05:33:50.302Z,10.73
2022-11-13T05:36:23.365Z,10.10
2022-11-13T05:38:54.608Z,10.63
2022-11-13T05:41:26.299Z,11.17
2022-11-13T05:44:01.023Z,10.43
2022-11-13T05:46:33.375Z,10.50
2022-11-13T05:49:05.352Z,11.80
2022-11-13T05:51:37.665Z,11.03
2022-11-13T05:54:09.040Z,9.37
2022-11-13T05:56:41.442Z,7.67
2022-11-13T05:59:14.721Z,7.83
2022-11-13T06:01:46.343Z,7.33
2022-11-13T06:04:17.480Z,7.47
2022-11-13T06:06:48.905Z,7.80
2022-11-13T06:09:21.291Z,7.90
2022-11-13T06:11:52.427Z,8.37
2022-11-13T06:14:26.005Z,8.40
2022-11-13T06:16:57.047Z,9.77
2022-11-13T06:19:28.629Z,9.90
2022-11-13T06:22:00.747Z,10.67
2022-11-13T06:24:34.687Z,11.20
2022-11-13T06:27:07.276Z,11.00
2022-11-13T06:29:40.403Z,11.17
2022-11-13T06:32:12.116Z,11.67
2022-11-13T06:34:43.391Z,11.67
2022-11-13T06:37:15.287Z,9.47
2022-11-13T06:39:46.405Z,9.33
2022-11-13T06:42:18.071Z,8.57
2022-11-13T06:44:51.310Z,8.20
2022-11-13T06:47:23.357Z,8.57
2022-11-13T06:49:55.562Z,7.70
2022-11-13T06:52:27.235Z,7.93
2022-11-13T06:54:59.073Z,7.60
2022-11-13T06:57:31.673Z,7.87
2022-11-13T07:00:05.236Z,7.07
2022-11-13T07:02:36.350Z,6.50
2022-11-13T07:05:08.795Z,6.97
2022-11-13T07:07:39.967Z,6.33
2022-11-13T07:10:11.700Z,6.87
2022-11-13T07:12:42.990Z,7.13
2022-11-13T07:15:18.025Z,7.27
2022-11-13T07:17:52.330Z,7.03
2022-11-13T07:20:24.818Z,7.67
2022-11-13T07:22:59.861Z,7.73
2022-11-13T07:25:32.092Z,7.00
2022-11-13T07:28:04.032Z,7.53
2022-11-13T07:30:37.622Z,7.30
2022-11-13T07:33:09.773Z,7.17
2022-11-13T07:35:42.573Z,7.57
2022-11-13T07:38:14.272Z,6.83
2022-11-13T07:40:45.602Z,6.97
2022-11-13T07:43:16.678Z,6.70
2022-11-13T07:45:55.933Z,6.30
2022-11-13T07:48:28.575Z,6.37
2022-11-13T07:51:05.418Z,6.00
2022-11-13T07:53:37.302Z,5.80
2022-11-13T07:56:09.165Z,5.63
2022-11-13T07:58:41.379Z,5.80
2022-11-13T08:01:14.810Z,6.17
2022-11-13T08:03:45.966Z,5.80
2022-11-13T08:06:17.595Z,6.07
2022-11-13T08:08:52.380Z,6.50
2022-11-13T08:11:23.626Z,6.13
2022-11-13T08:13:56.770Z,5.50
2022-11-13T08:16:32.243Z,6.30
2022-11-13T08:19:03.340Z,5.67
2022-11-13T08:21:34.970Z,5.97
2022-11-13T08:24:06.869Z,6.43
2022-11-13T08:26:41.034Z,6.30
2022-11-13T08:29:12.142Z,5.90
2022-11-13T08:31:45.390Z,5.80
2022-11-13T08:34:16.501Z,6.27
2022-11-13T08:36:48.647Z,5.67
2022-11-13T08:39:20.289Z,6.70
2022-11-13T08:41:52.875Z,5.97
2022-11-13T08:44:24.116Z,6.53
2022-11-13T08:46:56.830Z,6.53
2022-11-13T08:49:29.385Z,6.60
2022-11-13T08:52:01.381Z,6.03
2022-11-13T08:54:32.586Z,6.30
2022-11-13T08:57:06.101Z,6.30
2022-11-13T08:59:37.377Z,5.83
2022-11-13T09:02:10.402Z,5.83
2022-11-13T09:04:43.070Z,5.63
2022-11-13T09:07:14.261Z,6.10
2022-11-13T09:09:45.504Z,5.67
2022-11-13T09:12:17.983Z,5.60
2022-11-13T09:14:49.593Z,5.37
2022-11-13T09:17:22.777Z,5.67
2022-11-13T09:19:55.061Z,5.57
2022-11-13T09:22:26.206Z,6.33
2022-11-13T09:24:57.296Z,6.20
2022-11-13T09:27:28.403Z,6.30
2022-11-13T09:29:59.723Z,6.00
2022-11-13T09:32:33.187Z,6.00
2022-11-13T09:35:06.431Z,6.07
2022-11-13T09:37:40.158Z,6.17
2022-11-13T09:40:15.324Z,5.73
2022-11-13T09:42:47.481Z,6.07
2022-11-13T09:45:19.860Z,6.30
2022-11-13T09:47:55.419Z,6.70
2022-11-13T09:50:29.736Z,6.37
2022-11-13T09:53:00.964Z,6.40
2022-11-13T09:55:38.649Z,6.30
2022-11-13T09:58:16.359Z,5.87
2022-11-13T10:00:47.971Z,6.53
2022-11-13T10:06:36.806Z,7.17
2022-11-13T10:09:20.883Z,6.70
2022-11-13T10:11:57.397Z,6.17
2022-11-13T10:14:32.620Z,6.57
2022-11-13T10:17:10.039Z,6.53
2022-11-13T10:19:53.336Z,6.93
2022-11-13T10:22:33.771Z,7.33
2022-11-13T10:25:15.100Z,7.03
2022-11-13T10:27:47.898Z,8.20
2022-11-13T10:30:20.607Z,7.93
2022-11-13T10:32:51.871Z,8.63
2022-11-13T10:35:51.031Z,8.63
2022-11-13T10:38:31.797Z,8.93
2022-11-13T10:41:18.853Z,8.47
2022-11-13T10:44:01.529Z,6.47
2022-11-13T10:46:36.123Z,6.93
2022-11-13T10:49:16.719Z,7.00
2022-11-13T10:51:59.739Z,6.93
2022-11-13T10:54:32.368Z,6.47
2022-11-13T10:57:05.744Z,6.40
2022-11-13T10:59:43.244Z,6.43
2022-11-13T11:02:21.875Z,6.67
2022-11-13T11:05:04.483Z,6.73
2022-11-13T11:07:44.329Z,6.60
2022-11-13T11:10:36.911Z,6.40
2022-11-13T11:13:15.005Z,6.37
2022-11-13T11:15:51.055Z,6.53
2022-11-13T11:18:28.203Z,6.27
2022-11-13T11:21:02.456Z,6.60
2022-11-13T11:23:42.850Z,6.33
2022-11-13T11:26:19.231Z,5.67
2022-11-13T11:28:55.178Z,5.67
2022-11-13T11:31:34.153Z,5.93
2022-11-13T11:34:21.459Z,5.80
2022-11-13T11:37:04.512Z,6.10
2022-11-13T11:39:46.814Z,6.40
2022-11-13T11:42:32.167Z,6.20
2022-11-13T11:45:13.679Z,7.03
2022-11-13T11:47:45.464Z,6.10
2022-11-13T11:50:20.318Z,6.30
2022-11-13T11:53:03.018Z,6.60
2022-11-13T11:56:07.272Z,5.80
2022-11-13T11:59:07.503Z,6.30
2022-11-13T12:02:15.817Z,5.70
2022-11-13T12:05:04.780Z,6.33
2022-11-13T12:07:55.322Z,6.70
2022-11-13T12:10:32.200Z,6.23
2022-11-13T12:13:19.152Z,5.90
2022-11-13T12:15:54.410Z,6.20
2022-11-13T12:18:37.914Z,6.10
2022-11-13T12:21:25.379Z,5.40
2022-11-13T12:24:23.502Z,5.73
2022-11-13T12:27:07.473Z,5.90
2022-11-13T12:29:51.765Z,5.80
2022-11-13T12:32:35.633Z,5.33
2022-11-13T12:35:13.159Z,5.37
2022-11-13T12:37:51.884Z,5.17
2022-11-13T12:40:31.226Z,4.83
2022-11-13T12:43:15.351Z,5.63
2022-11-13T12:45:55.759Z,5.70
2022-11-13T12:48:35.446Z,5.30
2022-11-13T12:51:08.803Z,5.50
2022-11-13T12:53:50.315Z,5.43
2022-11-13T12:56:34.077Z,5.37
2022-11-13T12:59:29.805Z,5.33
2022-11-13T13:02:14.064Z,5.37
2022-11-13T13:04:58.606Z,5.97
2022-11-13T13:07:47.458Z,5.40
2022-11-13T13:10:26.731Z,4.87
2022-11-13T13:13:05.166Z,5.20
2022-11-13T13:15:40.156Z,5.90
2022-11-13T13:18:27.712Z,5.20
2022-11-13T13:21:10.911Z,5.53
2022-11-13T13:23:43.363Z,5.37
2022-11-13T13:26:21.573Z,5.00
2022-11-13T13:28:55.260Z,5.23
2022-11-13T13:31:36.215Z,5.70
2022-11-13T13:34:38.235Z,4.77
2022-11-13T13:37:21.586Z,5.43
2022-11-13T13:40:05.849Z,5.80
2022-11-13T13:42:53.533Z,5.30
2022-11-13T13:45:37.813Z,5.17
2022-11-13T13:48:14.729Z,4.77
2022-11-13T13:50:50.562Z,5.70
2022-11-13T13:53:27.637Z,5.67
2022-11-13T13:55:59.895Z,5.30
2022-11-13T13:58:35.848Z,5.70
2022-11-13T14:01:24.553Z,5.60
2022-11-13T14:04:08.245Z,4.73
2022-11-13T14:06:52.323Z,6.20
2022-11-13T14:09:26.387Z,5.70
2022-11-13T14:12:08.980Z,4.80
2022-11-13T14:14:43.367Z,5.07
2022-11-13T14:17:15.587Z,5.60
2022-11-13T14:19:53.628Z,5.43
2022-11-13T14:22:26.957Z,5.97
2022-11-13T14:25:01.854Z,5.60
2022-11-13T14:27:34.476Z,6.10
2022-11-13T14:30:10.746Z,6.20
2022-11-13T14:32:47.178Z,5.80
2022-11-13T14:35:25.164Z,5.63
2022-11-13T14:37:59.679Z,5.77
2022-11-13T14:40:33.501Z,5.73
2022-11-13T14:43:09.048Z,5.87
2022-11-13T14:45:41.217Z,5.33
2022-11-13T14:48:26.511Z,5.40
2022-11-13T14:50:59.587Z,5.27
2022-11-13T14:53:34.572Z,5.53
2022-11-13T14:56:10.968Z,4.97
2022-11-13T14:58:45.687Z,5.60
2022-11-13T15:01:19.497Z,5.60
2022-11-13T15:03:51.319Z,5.37
2022-11-13T15:06:24.079Z,5.13
2022-11-13T15:08:59.793Z,5.60
2022-11-13T15:11:31.823Z,5.17
2022-11-13T15:14:04.664Z,4.80
2022-11-13T15:16:36.881Z,5.40
2022-11-13T15:19:13.096Z,4.80
2022-11-13T15:21:51.049Z,5.20
2022-11-13T15:24:37.355Z,5.20
2022-11-13T15:27:11.138Z,4.20
2022-11-13T15:29:43.037Z,5.30
2022-11-13T15:32:15.844Z,4.37
2022-11-13T15:34:47.577Z,5.00
2022-11-13T15:37:20.037Z,4.37
2022-11-13T15:39:54.440Z,4.47
2022-11-13T15:42:36.358Z,3.80
2022-11-13T15:45:09.312Z,4.33
2022-11-13T15:47:41.099Z,4.53
2022-11-13T15:50:14.546Z,4.00
2022-11-13T15:52:48.890Z,4.00
2022-11-13T15:55:36.506Z,4.43
2022-11-13T15:58:07.534Z,4.40
2022-11-13T16:00:43.117Z,3.67
2022-11-13T16:03:15.077Z,4.60
2022-11-13T16:05:46.282Z,4.40
2022-11-13T16:08:18.572Z,4.27
2022-11-13T16:10:52.412Z,4.90
2022-11-13T16:13:23.326Z,5.33
2022-11-13T16:15:54.434Z,5.37
2022-11-13T16:18:29.475Z,5.97
2022-11-13T16:21:01.023Z,4.87
2022-11-13T16:23:32.412Z,4.80
2022-11-13T16:26:06.181Z,4.60
2022-11-13T16:28:52.891Z,4.60
2022-11-13T16:31:28.453Z,4.60
2022-11-13T16:33:59.682Z,4.83
2022-11-13T16:36:31.315Z,4.57
2022-11-13T16:39:03.311Z,4.37
2022-11-13T16:41:36.765Z,4.70
2022-11-13T16:44:10.404Z,4.30
2022-11-13T16:46:48.867Z,4.20
2022-11-13T16:49:21.770Z,4.50
2022-11-13T16:51:54.603Z,4.40
2022-11-13T16:54:26.349Z,4.10
2022-11-13T16:56:59.449Z,4.10
2022-11-13T16:59:30.527Z,4.20
2022-11-13T17:02:04.597Z,3.43
2022-11-13T17:04:35.674Z,3.37
2022-11-13T17:07:07.637Z,3.03
2022-11-13T17:09:43.603Z,3.00
2022-11-13T17:12:21.870Z,2.97
2022-11-13T17:14:55.845Z,3.20
2022-11-13T17:17:29.164Z,2.90
2022-11-13T17:20:03.049Z,2.73
2022-11-13T17:22:34.660Z,2.97
2022-11-13T17:25:06.022Z,3.00
2022-11-13T17:27:38.988Z,3.50
2022-11-13T17:30:11.423Z,2.60
2022-11-13T17:32:42.247Z,2.83
2022-11-13T17:35:15.513Z,3.00
2022-11-13T17:37:46.374Z,2.90
2022-11-13T17:40:17.513Z,2.93
2022-11-13T17:42:50.700Z,3.30
2022-11-13T17:45:23.770Z,3.23
2022-11-13T17:47:54.978Z,3.53
2022-11-13T17:50:27.763Z,3.73
2022-11-13T17:52:58.864Z,3.80
2022-11-13T17:55:30.469Z,3.07
2022-11-13T17:58:06.764Z,3.10
2022-11-13T18:00:41.054Z,3.10
2022-11-13T18:03:12.196Z,3.43
2022-11-13T18:05:43.482Z,3.57
2022-11-13T18:08:15.255Z,3.53
2022-11-13T18:10:46.299Z,3.60
2022-11-13T18:13:20.742Z,3.40
2022-11-13T18:15:51.874Z,3.70
2022-11-13T18:18:23.582Z,4.07
2022-11-13T18:20:54.633Z,3.87
2022-11-13T18:23:26.349Z,4.13
2022-11-13T18:25:57.958Z,3.43
2022-11-13T18:28:31.246Z,3.70
2022-11-13T18:31:02.336Z,3.87
2022-11-13T18:33:35.267Z,3.60
2022-11-13T18:36:08.130Z,3.40
2022-11-13T18:38:39.992Z,4.30
2022-11-13T18:41:13.645Z,3.90
2022-11-13T18:43:50.177Z,4.33
2022-11-13T18:46:35.911Z,4.70
2022-11-13T18:49:08.621Z,4.77
2022-11-13T18:51:41.996Z,4.67
2022-11-13T18:54:15.457Z,4.60
2022-11-13T18:56:51.022Z,4.27
2022-11-13T18:59:24.928Z,4.60
2022-11-13T19:01:57.236Z,4.87
2022-11-13T19:04:32.097Z,4.77
2022-11-13T19:07:04.484Z,4.87
2022-11-13T19:09:35.461Z,5.17
2022-11-13T19:12:06.707Z,5.10
2022-11-13T19:14:40.162Z,4.80
2022-11-13T19:17:15.869Z,4.47
2022-11-13T19:19:47.011Z,4.33
2022-11-13T19:22:18.541Z,4.50
2022-11-13T19:24:50.127Z,4.60
2022-11-13T19:27:21.926Z,5.20
2022-11-13T19:29:55.277Z,4.93
2022-11-13T19:32:26.374Z,4.87
2022-11-13T19:34:58.063Z,4.80
2022-11-13T19:37:30.755Z,4.80
2022-11-13T19:40:02.388Z,4.67
2022-11-13T19:42:37.016Z,3.90
2022-11-13T19:45:18.870Z,4.53
2022-11-13T19:47:50.607Z,4.10
2022-11-13T19:50:22.561Z,4.30
2022-11-13T19:52:54.023Z,4.70
2022-11-13T19:55:25.713Z,3.97
2022-11-13T19:57:58.221Z,4.83
2022-11-13T20:00:32.058Z,4.77
2022-11-13T20:03:07.423Z,4.70
2022-11-13T20:05:48.926Z,4.60
2022-11-13T20:08:22.993Z,4.60
2022-11-13T20:11:04.396Z,4.60
2022-11-13T20:13:39.904Z,3.97
2022-11-13T20:16:18.659Z,4.47
2022-11-13T20:18:54.581Z,4.57
2022-11-13T20:21:29.049Z,4.00
2022-11-13T20:24:03.082Z,3.90
2022-11-13T20:26:34.576Z,3.90
2022-11-13T20:29:06.272Z,4.60
2022-11-13T20:31:40.987Z,4.20
2022-11-13T20:34:12.573Z,4.57
2022-11-13T20:36:51.509Z,3.90
2022-11-13T20:39:22.644Z,4.20
2022-11-13T20:41:53.539Z,4.97
2022-11-13T20:44:27.098Z,4.60
2022-11-13T20:46:59.978Z,4.20
2022-11-13T20:49:34.334Z,4.30
2022-11-13T20:52:07.940Z,4.50
2022-11-13T20:54:38.788Z,4.20
2022-11-13T20:57:12.848Z,4.50
2022-11-13T20:59:44.393Z,4.50
2022-11-13T21:02:22.835Z,4.43
2022-11-13T21:04:54.778Z,4.17
2022-11-13T21:07:28.087Z,5.53
2022-11-13T21:10:00.072Z,4.50
2022-11-13T21:12:34.210Z,4.50
2022-11-13T21:15:05.349Z,4.63
2022-11-13T21:17:38.670Z,4.70
2022-11-13T21:20:16.371Z,4.60
2022-11-13T21:22:47.512Z,4.53
2022-11-13T21:25:21.125Z,4.70
2022-11-13T21:27:52.854Z,4.57
2022-11-13T21:30:24.644Z,4.83
2022-11-13T21:32:59.326Z,4.90
2022-11-13T21:35:31.862Z,4.40
2022-11-13T21:38:08.274Z,4.70
2022-11-13T21:40:39.637Z,4.07
2022-11-13T21:43:11.339Z,4.80
2022-11-13T21:45:43.467Z,4.47
2022-11-13T21:48:20.146Z,4.77
2022-11-13T21:51:00.105Z,4.87
2022-11-13T21:53:32.961Z,5.00
2022-11-13T21:56:05.108Z,4.80
2022-11-13T21:58:37.546Z,5.17
2022-11-13T22:01:09.145Z,4.63
2022-11-13T22:03:42.381Z,4.80
2022-11-13T22:06:18.900Z,4.97
2022-11-13T22:08:57.510Z,5.37
2022-11-13T22:11:31.486Z,5.00
2022-11-13T22:14:05.310Z,5.60
2022-11-13T22:16:39.864Z,4.50
2022-11-13T22:19:17.183Z,5.07
2022-11-13T22:21:49.249Z,5.00
2022-11-13T22:24:20.644Z,4.83
2022-11-13T22:26:51.740Z,4.17
2022-11-13T22:29:22.963Z,4.77
2022-11-13T22:31:54.182Z,4.63
2022-11-13T22:34:27.321Z,4.80
2022-11-13T22:36:58.759Z,5.10
2022-11-13T22:39:30.193Z,4.27
2022-11-13T22:42:01.551Z,4.83
2022-11-13T22:44:54.329Z,4.67
2022-11-13T22:47:25.936Z,4.87
2022-11-13T22:49:59.399Z,4.90
2022-11-13T22:52:30.704Z,5.47
2022-11-13T22:55:01.987Z,5.20
2022-11-13T22:57:34.207Z,5.37
2022-11-13T23:00:10.407Z,5.57
2022-11-13T23:02:47.048Z,5.10
2022-11-13T23:05:21.191Z,5.03
2022-11-13T23:07:52.754Z,5.47
2022-11-13T23:10:26.228Z,5.37
2022-11-13T23:12:57.556Z,5.20
2022-11-13T23:15:28.804Z,5.23
2022-11-13T23:18:01.793Z,5.23
2022-11-13T23:20:37.214Z,5.63
2022-11-13T23:23:11.348Z,5.20
2022-11-13T23:25:42.721Z,5.57
2022-11-13T23:28:16.530Z,5.23
2022-11-13T23:30:48.117Z,5.83
2022-11-13T23:33:19.701Z,5.60
2022-11-13T23:35:54.566Z,5.57
2022-11-13T23:38:26.266Z,5.77
2022-11-13T23:41:01.421Z,5.90
2022-11-13T23:44:08.282Z,5.57
2022-11-13T23:46:31.307Z,6.07
2022-11-13T23:49:02.928Z,6.43
2022-11-13T23:51:35.872Z,5.93
2022-11-13T23:54:07.185Z,6.33
2022-11-13T23:56:39.620Z,6.73
2022-11-13T23:59:11.577Z,5.77
